sensor_id;sensor_type;location;lat;lon;timestamp;P1;durP1;ratioP1;P2;durP2;ratioP2
5811;SDS011;2932;52.400;9.558;2022-11-06T00:02:10;5.63;;;1.60;;
5811;SDS011;2932;52.400;9.558;2022-11-06T00:04:36;8.27;;;1.90;;
5811;SDS011;2932;52.400;9.558;2022-11-06T00:07:01;4.27;;;2.03;;
5811;SDS011;2932;52.400;9.558;2022-11-06T00:09:27;4.73;;;1.60;;
5811;SDS011;2932;52.400;9.558;2022-11-06T00:11:52;2.53;;;1.63;;
5811;SDS011;2932;52.400;9.558;2022-11-06T00:14:18;2.50;;;1.77;;
5811;SDS011;2932;52.400;9.558;2022-11-06T00:16:44;4.20;;;1.50;;
5811;SDS011;2932;52.400;9.558;2022-11-06T00:19:11;5.47;;;1.73;;
5811;SDS011;2932;52.400;9.558;2022-11-06T00:21:36;3.03;;;1.70;;
5811;SDS011;2932;52.400;9.558;2022-11-06T00:24:03;4.90;;;1.70;;
5811;SDS011;2932;52.400;9.558;2022-11-06T00:26:30;3.90;;;1.60;;
5811;SDS011;2932;52.400;9.558;2022-11-06T00:28:56;8.87;;;1.93;;
5811;SDS011;2932;52.400;9.558;2022-11-06T00:31:24;3.33;;;1.73;;
5811;SDS011;2932;52.400;9.558;2022-11-06T00:33:52;2.97;;;1.87;;
5811;SDS011;2932;52.400;9.558;2022-11-06T00:36:19;3.90;;;2.00;;
5811;SDS011;2932;52.400;9.558;2022-11-06T00:38:46;5.00;;;2.17;;
5811;SDS011;2932;52.400;9.558;2022-11-06T00:41:15;6.00;;;2.90;;
5811;SDS011;2932;52.400;9.558;2022-11-06T00:43:41;3.83;;;1.97;;
5811;SDS011;2932;52.400;9.558;2022-11-06T00:46:11;3.90;;;2.10;;
5811;SDS011;2932;52.400;9.558;2022-11-06T00:48:38;4.63;;;2.63;;
5811;SDS011;2932;52.400;9.558;2022-11-06T00:51:21;4.93;;;2.13;;
5811;SDS011;2932;52.400;9.558;2022-11-06T00:53:46;3.33;;;2.10;;
5811;SDS011;2932;52.400;9.558;2022-11-06T00:56:13;4.10;;;1.80;;
5811;SDS011;2932;52.400;9.558;2022-11-06T00:58:43;3.90;;;2.10;;
5811;SDS011;2932;52.400;9.558;2022-11-06T01:01:10;3.43;;;1.50;;
5811;SDS011;2932;52.400;9.558;2022-11-06T01:03:41;4.23;;;1.73;;
5811;SDS011;2932;52.400;9.558;2022-11-06T01:06:14;3.43;;;1.80;;
5811;SDS011;2932;52.400;9.558;2022-11-06T01:08:41;4.40;;;1.50;;
5811;SDS011;2932;52.400;9.558;2022-11-06T01:11:29;5.37;;;1.90;;
5811;SDS011;2932;52.400;9.558;2022-11-06T01:13:57;2.90;;;1.60;;
5811;SDS011;2932;52.400;9.558;2022-11-06T01:16:24;8.63;;;1.93;;
5811;SDS011;2932;52.400;9.558;2022-11-06T01:18:51;4.77;;;1.90;;
5811;SDS011;2932;52.400;9.558;2022-11-06T01:21:18;2.43;;;1.60;;
5811;SDS011;2932;52.400;9.558;2022-11-06T01:24:05;3.40;;;2.07;;
5811;SDS011;2932;52.400;9.558;2022-11-06T01:26:32;3.00;;;1.70;;
5811;SDS011;2932;52.400;9.558;2022-11-06T01:28:58;3.47;;;1.83;;
5811;SDS011;2932;52.400;9.558;2022-11-06T01:31:25;6.80;;;1.67;;
5811;SDS011;2932;52.400;9.558;2022-11-06T01:33:53;1.90;;;1.67;;
5811;SDS011;2932;52.400;9.558;2022-11-06T01:36:19;4.00;;;1.80;;
5811;SDS011;2932;52.400;9.558;2022-11-06T01:38:46;5.00;;;1.70;;
5811;SDS011;2932;52.400;9.558;2022-11-06T01:41:13;3.63;;;1.50;;
5811;SDS011;2932;52.400;9.558;2022-11-06T01:44:00;5.00;;;1.83;;
5811;SDS011;2932;52.400;9.558;2022-11-06T01:46:32;4.63;;;1.90;;
5811;SDS011;2932;52.400;9.558;2022-11-06T01:51:38;3.57;;;1.77;;
5811;SDS011;2932;52.400;9.558;2022-11-06T01:54:08;3.97;;;1.90;;
5811;SDS011;2932;52.400;9.558;2022-11-06T01:56:36;5.03;;;1.90;;
5811;SDS011;2932;52.400;9.558;2022-11-06T01:59:03;4.60;;;2.00;;
5811;SDS011;2932;52.400;9.558;2022-11-06T02:01:30;3.83;;;2.10;;
5811;SDS011;2932;52.400;9.558;2022-11-06T02:04:01;3.97;;;2.03;;
5811;SDS011;2932;52.400;9.558;2022-11-06T02:06:31;3.53;;;2.10;;
5811;SDS011;2932;52.400;9.558;2022-11-06T02:08:57;5.40;;;2.07;;
5811;SDS011;2932;52.400;9.558;2022-11-06T02:11:23;5.07;;;2.10;;
5811;SDS011;2932;52.400;9.558;2022-11-06T02:14:04;6.13;;;2.13;;
5811;SDS011;2932;52.400;9.558;2022-11-06T02:16:45;2.67;;;1.80;;
5811;SDS011;2932;52.400;9.558;2022-11-06T02:19:26;4.83;;;2.00;;
5811;SDS011;2932;52.400;9.558;2022-11-06T02:22:17;6.17;;;1.97;;
5811;SDS011;2932;52.400;9.558;2022-11-06T02:27:22;4.40;;;2.07;;
5811;SDS011;2932;52.400;9.558;2022-11-06T02:38:00;7.37;;;2.30;;
5811;SDS011;2932;52.400;9.558;2022-11-06T02:40:30;4.87;;;2.30;;
5811;SDS011;2932;52.400;9.558;2022-11-06T02:42:59;4.47;;;2.20;;
5811;SDS011;2932;52.400;9.558;2022-11-06T02:45:29;3.40;;;2.07;;
5811;SDS011;2932;52.400;9.558;2022-11-06T02:47:56;5.13;;;2.33;;
5811;SDS011;2932;52.400;9.558;2022-11-06T02:50:29;4.50;;;2.13;;
5811;SDS011;2932;52.400;9.558;2022-11-06T02:53:03;2.30;;;1.90;;
5811;SDS011;2932;52.400;9.558;2022-11-06T02:58:04;4.50;;;2.50;;
5811;SDS011;2932;52.400;9.558;2022-11-06T03:00:33;3.30;;;2.10;;
5811;SDS011;2932;52.400;9.558;2022-11-06T03:03:00;4.77;;;2.53;;
5811;SDS011;2932;52.400;9.558;2022-11-06T03:11:22;4.03;;;2.30;;
5811;SDS011;2932;52.400;9.558;2022-11-06T03:20:28;5.07;;;3.07;;
5811;SDS011;2932;52.400;9.558;2022-11-06T03:22:37;8.77;;;3.60;;
5811;SDS011;2932;52.400;9.558;2022-11-06T03:30:18;5.73;;;2.47;;
5811;SDS011;2932;52.400;9.558;2022-11-06T03:36:14;7.00;;;3.10;;
5811;SDS011;2932;52.400;9.558;2022-11-06T03:38:44;4.53;;;2.93;;
5811;SDS011;2932;52.400;9.558;2022-11-06T03:41:15;7.63;;;3.03;;
5811;SDS011;2932;52.400;9.558;2022-11-06T03:43:46;5.70;;;3.17;;
5811;SDS011;2932;52.400;9.558;2022-11-06T03:46:16;5.43;;;2.70;;
5811;SDS011;2932;52.400;9.558;2022-11-06T03:48:47;7.30;;;3.57;;
5811;SDS011;2932;52.400;9.558;2022-11-06T03:51:19;5.43;;;2.67;;
5811;SDS011;2932;52.400;9.558;2022-11-06T03:53:51;5.10;;;2.80;;
5811;SDS011;2932;52.400;9.558;2022-11-06T03:56:22;6.17;;;2.97;;
5811;SDS011;2932;52.400;9.558;2022-11-06T03:58:53;4.87;;;2.90;;
5811;SDS011;2932;52.400;9.558;2022-11-06T04:01:21;5.80;;;2.97;;
5811;SDS011;2932;52.400;9.558;2022-11-06T04:06:48;4.97;;;2.43;;
5811;SDS011;2932;52.400;9.558;2022-11-06T04:09:20;3.37;;;2.70;;
5811;SDS011;2932;52.400;9.558;2022-11-06T04:12:08;5.17;;;3.20;;
5811;SDS011;2932;52.400;9.558;2022-11-06T04:14:56;6.83;;;3.00;;
5811;SDS011;2932;52.400;9.558;2022-11-06T04:17:23;7.50;;;3.20;;
5811;SDS011;2932;52.400;9.558;2022-11-06T04:19:52;4.57;;;2.90;;
5811;SDS011;2932;52.400;9.558;2022-11-06T04:36:44;7.60;;;2.87;;
5811;SDS011;2932;52.400;9.558;2022-11-06T04:42:10;6.10;;;2.47;;
5811;SDS011;2932;52.400;9.558;2022-11-06T04:44:49;4.70;;;2.60;;
5811;SDS011;2932;52.400;9.558;2022-11-06T04:47:19;5.07;;;2.67;;
5811;SDS011;2932;52.400;9.558;2022-11-06T04:49:47;3.37;;;2.23;;
5811;SDS011;2932;52.400;9.558;2022-11-06T04:52:19;6.07;;;2.57;;
5811;SDS011;2932;52.400;9.558;2022-11-06T04:54:47;6.33;;;2.70;;
5811;SDS011;2932;52.400;9.558;2022-11-06T04:57:13;3.87;;;2.63;;
5811;SDS011;2932;52.400;9.558;2022-11-06T04:59:39;5.23;;;2.53;;
5811;SDS011;2932;52.400;9.558;2022-11-06T05:02:05;4.40;;;2.30;;
5811;SDS011;2932;52.400;9.558;2022-11-06T05:04:30;3.43;;;2.23;;
5811;SDS011;2932;52.400;9.558;2022-11-06T05:06:56;5.03;;;2.83;;
5811;SDS011;2932;52.400;9.558;2022-11-06T05:09:22;5.63;;;2.60;;
5811;SDS011;2932;52.400;9.558;2022-11-06T05:11:47;5.70;;;2.70;;
5811;SDS011;2932;52.400;9.558;2022-11-06T05:14:13;3.67;;;2.20;;
5811;SDS011;2932;52.400;9.558;2022-11-06T05:16:38;6.03;;;2.50;;
5811;SDS011;2932;52.400;9.558;2022-11-06T05:19:03;4.83;;;2.13;;
5811;SDS011;2932;52.400;9.558;2022-11-06T05:21:29;4.83;;;2.30;;
5811;SDS011;2932;52.400;9.558;2022-11-06T05:24:13;6.37;;;2.33;;
5811;SDS011;2932;52.400;9.558;2022-11-06T05:26:38;7.43;;;2.20;;
5811;SDS011;2932;52.400;9.558;2022-11-06T05:29:04;2.17;;;1.70;;
5811;SDS011;2932;52.400;9.558;2022-11-06T05:31:29;5.40;;;2.13;;
5811;SDS011;2932;52.400;9.558;2022-11-06T05:33:54;5.73;;;1.97;;
5811;SDS011;2932;52.400;9.558;2022-11-06T05:36:20;4.03;;;1.93;;
5811;SDS011;2932;52.400;9.558;2022-11-06T05:38:45;3.80;;;2.10;;
5811;SDS011;2932;52.400;9.558;2022-11-06T05:41:10;3.73;;;2.10;;
5811;SDS011;2932;52.400;9.558;2022-11-06T05:43:36;6.00;;;1.90;;
5811;SDS011;2932;52.400;9.558;2022-11-06T05:46:01;3.30;;;2.13;;
5811;SDS011;2932;52.400;9.558;2022-11-06T05:48:27;5.73;;;2.47;;
5811;SDS011;2932;52.400;9.558;2022-11-06T05:50:52;4.10;;;2.40;;
5811;SDS011;2932;52.400;9.558;2022-11-06T05:53:18;6.60;;;2.10;;
5811;SDS011;2932;52.400;9.558;2022-11-06T05:55:46;4.70;;;2.30;;
5811;SDS011;2932;52.400;9.558;2022-11-06T05:58:12;3.53;;;2.10;;
5811;SDS011;2932;52.400;9.558;2022-11-06T06:00:38;4.97;;;2.17;;
5811;SDS011;2932;52.400;9.558;2022-11-06T06:03:03;5.53;;;2.47;;
5811;SDS011;2932;52.400;9.558;2022-11-06T06:05:29;4.80;;;2.00;;
5811;SDS011;2932;52.400;9.558;2022-11-06T06:07:54;5.83;;;1.90;;
5811;SDS011;2932;52.400;9.558;2022-11-06T06:10:20;11.70;;;3.47;;
5811;SDS011;2932;52.400;9.558;2022-11-06T06:12:47;4.63;;;1.90;;
5811;SDS011;2932;52.400;9.558;2022-11-06T06:15:13;3.73;;;1.87;;
5811;SDS011;2932;52.400;9.558;2022-11-06T06:17:39;4.20;;;2.13;;
5811;SDS011;2932;52.400;9.558;2022-11-06T06:20:04;8.60;;;2.53;;
5811;SDS011;2932;52.400;9.558;2022-11-06T06:22:30;2.40;;;1.67;;
5811;SDS011;2932;52.400;9.558;2022-11-06T06:24:55;4.13;;;2.23;;
5811;SDS011;2932;52.400;9.558;2022-11-06T06:27:21;4.10;;;1.93;;
5811;SDS011;2932;52.400;9.558;2022-11-06T06:29:46;3.80;;;1.87;;
5811;SDS011;2932;52.400;9.558;2022-11-06T06:32:11;3.97;;;2.10;;
5811;SDS011;2932;52.400;9.558;2022-11-06T06:34:37;5.33;;;2.13;;
5811;SDS011;2932;52.400;9.558;2022-11-06T06:37:02;4.53;;;2.30;;
5811;SDS011;2932;52.400;9.558;2022-11-06T06:39:27;4.67;;;2.00;;
5811;SDS011;2932;52.400;9.558;2022-11-06T06:41:53;3.63;;;2.27;;
5811;SDS011;2932;52.400;9.558;2022-11-06T06:44:18;3.43;;;1.80;;
5811;SDS011;2932;52.400;9.558;2022-11-06T06:46:43;7.10;;;2.37;;
5811;SDS011;2932;52.400;9.558;2022-11-06T06:49:09;5.67;;;2.30;;
5811;SDS011;2932;52.400;9.558;2022-11-06T06:51:34;6.27;;;2.60;;
5811;SDS011;2932;52.400;9.558;2022-11-06T06:54:00;5.87;;;2.10;;
5811;SDS011;2932;52.400;9.558;2022-11-06T06:56:25;6.23;;;2.63;;
5811;SDS011;2932;52.400;9.558;2022-11-06T06:58:53;5.13;;;2.60;;
5811;SDS011;2932;52.400;9.558;2022-11-06T07:01:19;4.27;;;2.60;;
5811;SDS011;2932;52.400;9.558;2022-11-06T07:03:44;3.80;;;2.37;;
5811;SDS011;2932;52.400;9.558;2022-11-06T07:06:09;7.53;;;2.70;;
5811;SDS011;2932;52.400;9.558;2022-11-06T07:08:35;2.77;;;2.07;;
5811;SDS011;2932;52.400;9.558;2022-11-06T07:11:02;2.43;;;2.23;;
5811;SDS011;2932;52.400;9.558;2022-11-06T07:13:32;4.10;;;2.57;;
5811;SDS011;2932;52.400;9.558;2022-11-06T07:15:57;2.77;;;2.40;;
5811;SDS011;2932;52.400;9.558;2022-11-06T07:18:23;6.10;;;2.90;;
5811;SDS011;2932;52.400;9.558;2022-11-06T07:20:49;8.17;;;3.37;;
5811;SDS011;2932;52.400;9.558;2022-11-06T07:23:14;7.27;;;3.17;;
5811;SDS011;2932;52.400;9.558;2022-11-06T07:25:40;6.10;;;2.90;;
5811;SDS011;2932;52.400;9.558;2022-11-06T07:28:06;7.53;;;2.67;;
5811;SDS011;2932;52.400;9.558;2022-11-06T07:30:32;3.70;;;2.50;;
5811;SDS011;2932;52.400;9.558;2022-11-06T07:32:59;4.23;;;2.50;;
5811;SDS011;2932;52.400;9.558;2022-11-06T07:35:26;5.70;;;2.90;;
5811;SDS011;2932;52.400;9.558;2022-11-06T07:37:52;4.77;;;2.63;;
5811;SDS011;2932;52.400;9.558;2022-11-06T07:40:17;3.63;;;2.57;;
5811;SDS011;2932;52.400;9.558;2022-11-06T07:42:43;6.07;;;2.97;;
5811;SDS011;2932;52.400;9.558;2022-11-06T07:45:08;8.90;;;3.77;;
5811;SDS011;2932;52.400;9.558;2022-11-06T07:47:34;4.70;;;2.97;;
5811;SDS011;2932;52.400;9.558;2022-11-06T07:49:59;6.07;;;2.87;;
5811;SDS011;2932;52.400;9.558;2022-11-06T07:52:25;7.63;;;3.03;;
5811;SDS011;2932;52.400;9.558;2022-11-06T07:54:50;4.87;;;3.00;;
5811;SDS011;2932;52.400;9.558;2022-11-06T07:57:16;3.97;;;2.80;;
5811;SDS011;2932;52.400;9.558;2022-11-06T07:59:41;5.50;;;2.93;;
5811;SDS011;2932;52.400;9.558;2022-11-06T08:02:09;5.57;;;2.90;;
5811;SDS011;2932;52.400;9.558;2022-11-06T08:04:36;4.57;;;3.43;;
5811;SDS011;2932;52.400;9.558;2022-11-06T08:07:02;6.50;;;3.13;;
5811;SDS011;2932;52.400;9.558;2022-11-06T08:09:27;6.43;;;3.40;;
5811;SDS011;2932;52.400;9.558;2022-11-06T08:11:52;3.93;;;2.67;;
5811;SDS011;2932;52.400;9.558;2022-11-06T08:14:18;5.30;;;2.63;;
5811;SDS011;2932;52.400;9.558;2022-11-06T08:16:43;3.67;;;2.80;;
5811;SDS011;2932;52.400;9.558;2022-11-06T08:19:08;3.03;;;2.70;;
5811;SDS011;2932;52.400;9.558;2022-11-06T08:21:34;7.13;;;2.47;;
5811;SDS011;2932;52.400;9.558;2022-11-06T08:23:59;6.37;;;2.77;;
5811;SDS011;2932;52.400;9.558;2022-11-06T08:26:24;5.83;;;3.30;;
5811;SDS011;2932;52.400;9.558;2022-11-06T08:28:50;4.50;;;2.80;;
5811;SDS011;2932;52.400;9.558;2022-11-06T08:31:15;7.10;;;2.93;;
5811;SDS011;2932;52.400;9.558;2022-11-06T08:33:41;4.87;;;2.80;;
5811;SDS011;2932;52.400;9.558;2022-11-06T08:36:07;6.33;;;2.70;;
5811;SDS011;2932;52.400;9.558;2022-11-06T08:38:33;6.33;;;2.70;;
5811;SDS011;2932;52.400;9.558;2022-11-06T08:41:06;5.80;;;2.53;;
5811;SDS011;2932;52.400;9.558;2022-11-06T08:43:33;7.00;;;2.50;;
5811;SDS011;2932;52.400;9.558;2022-11-06T08:45:59;5.47;;;3.20;;
5811;SDS011;2932;52.400;9.558;2022-11-06T08:48:25;7.23;;;3.13;;
5811;SDS011;2932;52.400;9.558;2022-11-06T08:50:50;4.47;;;2.90;;
5811;SDS011;2932;52.400;9.558;2022-11-06T08:53:16;4.97;;;3.40;;
5811;SDS011;2932;52.400;9.558;2022-11-06T08:55:41;4.57;;;2.90;;
5811;SDS011;2932;52.400;9.558;2022-11-06T08:58:06;5.23;;;3.57;;
5811;SDS011;2932;52.400;9.558;2022-11-06T09:00:32;6.00;;;2.87;;
5811;SDS011;2932;52.400;9.558;2022-11-06T09:03:02;5.20;;;3.10;;
5811;SDS011;2932;52.400;9.558;2022-11-06T09:05:29;10.07;;;3.07;;
5811;SDS011;2932;52.400;9.558;2022-11-06T09:07:58;5.20;;;3.20;;
5811;SDS011;2932;52.400;9.558;2022-11-06T09:10:24;5.20;;;2.67;;
5811;SDS011;2932;52.400;9.558;2022-11-06T09:12:50;4.70;;;3.57;;
5811;SDS011;2932;52.400;9.558;2022-11-06T09:15:16;3.77;;;2.70;;
5811;SDS011;2932;52.400;9.558;2022-11-06T09:17:45;4.50;;;2.70;;
5811;SDS011;2932;52.400;9.558;2022-11-06T09:20:12;6.43;;;3.00;;
5811;SDS011;2932;52.400;9.558;2022-11-06T09:22:39;8.67;;;3.00;;
5811;SDS011;2932;52.400;9.558;2022-11-06T09:25:04;9.47;;;3.57;;
5811;SDS011;2932;52.400;9.558;2022-11-06T09:27:31;5.37;;;2.90;;
5811;SDS011;2932;52.400;9.558;2022-11-06T09:29:56;4.23;;;2.80;;
5811;SDS011;2932;52.400;9.558;2022-11-06T09:32:22;3.57;;;2.60;;
5811;SDS011;2932;52.400;9.558;2022-11-06T09:34:48;4.73;;;3.00;;
5811;SDS011;2932;52.400;9.558;2022-11-06T09:37:14;6.07;;;2.53;;
5811;SDS011;2932;52.400;9.558;2022-11-06T09:39:39;6.50;;;2.50;;
5811;SDS011;2932;52.400;9.558;2022-11-06T09:42:07;2.93;;;2.33;;
5811;SDS011;2932;52.400;9.558;2022-11-06T09:47:28;4.00;;;2.40;;
5811;SDS011;2932;52.400;9.558;2022-11-06T09:49:58;4.47;;;2.60;;
5811;SDS011;2932;52.400;9.558;2022-11-06T09:52:35;7.13;;;2.77;;
5811;SDS011;2932;52.400;9.558;2022-11-06T09:55:11;5.57;;;3.60;;
5811;SDS011;2932;52.400;9.558;2022-11-06T09:58:04;4.73;;;2.47;;
5811;SDS011;2932;52.400;9.558;2022-11-06T10:00:37;3.43;;;2.60;;
5811;SDS011;2932;52.400;9.558;2022-11-06T10:03:05;3.93;;;2.63;;
5811;SDS011;2932;52.400;9.558;2022-11-06T10:05:39;4.07;;;2.90;;
5811;SDS011;2932;52.400;9.558;2022-11-06T10:08:08;3.13;;;2.83;;
5811;SDS011;2932;52.400;9.558;2022-11-06T10:16:12;3.90;;;2.30;;
5811;SDS011;2932;52.400;9.558;2022-11-06T10:21:44;6.67;;;2.63;;
5811;SDS011;2932;52.400;9.558;2022-11-06T10:24:19;3.97;;;2.37;;
5811;SDS011;2932;52.400;9.558;2022-11-06T10:26:54;5.13;;;2.10;;
5811;SDS011;2932;52.400;9.558;2022-11-06T10:34:53;5.37;;;2.07;;
5811;SDS011;2932;52.400;9.558;2022-11-06T10:37:28;3.70;;;2.00;;
5811;SDS011;2932;52.400;9.558;2022-11-06T10:39:59;3.30;;;2.20;;
5811;SDS011;2932;52.400;9.558;2022-11-06T10:42:30;2.87;;;1.90;;
5811;SDS011;2932;52.400;9.558;2022-11-06T10:45:01;3.00;;;1.80;;
5811;SDS011;2932;52.400;9.558;2022-11-06T10:47:35;3.93;;;2.00;;
5811;SDS011;2932;52.400;9.558;2022-11-06T10:50:05;5.80;;;1.73;;
5811;SDS011;2932;52.400;9.558;2022-11-06T11:00:31;2.27;;;1.60;;
5811;SDS011;2932;52.400;9.558;2022-11-06T11:02:59;2.43;;;1.60;;
5811;SDS011;2932;52.400;9.558;2022-11-06T11:05:26;3.55;;;1.85;;
5811;SDS011;2932;52.400;9.558;2022-11-06T11:08:02;3.00;;;1.45;;
5811;SDS011;2932;52.400;9.558;2022-11-06T11:10:32;5.03;;;1.80;;
5811;SDS011;2932;52.400;9.558;2022-11-06T11:13:03;3.53;;;1.65;;
5811;SDS011;2932;52.400;9.558;2022-11-06T11:15:30;2.53;;;1.70;;
5811;SDS011;2932;52.400;9.558;2022-11-06T11:21:06;2.28;;;1.77;;
5811;SDS011;2932;52.400;9.558;2022-11-06T11:23:44;3.40;;;1.50;;
5811;SDS011;2932;52.400;9.558;2022-11-06T11:26:31;3.75;;;1.75;;
5811;SDS011;2932;52.400;9.558;2022-11-06T11:28:58;4.22;;;2.03;;
5811;SDS011;2932;52.400;9.558;2022-11-06T11:31:30;4.50;;;1.70;;
5811;SDS011;2932;52.400;9.558;2022-11-06T11:33:58;3.10;;;1.65;;
5811;SDS011;2932;52.400;9.558;2022-11-06T11:36:31;3.25;;;1.60;;
5811;SDS011;2932;52.400;9.558;2022-11-06T11:39:13;3.28;;;1.70;;
5811;SDS011;2932;52.400;9.558;2022-11-06T11:41:40;2.53;;;1.70;;
5811;SDS011;2932;52.400;9.558;2022-11-06T11:44:16;3.13;;;1.70;;
5811;SDS011;2932;52.400;9.558;2022-11-06T11:49:24;6.10;;;1.70;;
5811;SDS011;2932;52.400;9.558;2022-11-06T11:51:51;3.28;;;1.90;;
5811;SDS011;2932;52.400;9.558;2022-11-06T11:54:18;3.30;;;1.92;;
5811;SDS011;2932;52.400;9.558;2022-11-06T11:56:58;1.85;;;1.75;;
5811;SDS011;2932;52.400;9.558;2022-11-06T11:59:27;3.90;;;1.65;;
5811;SDS011;2932;52.400;9.558;2022-11-06T12:01:56;3.28;;;1.60;;
5811;SDS011;2932;52.400;9.558;2022-11-06T12:04:31;4.20;;;1.90;;
5811;SDS011;2932;52.400;9.558;2022-11-06T12:07:03;2.88;;;1.60;;
5811;SDS011;2932;52.400;9.558;2022-11-06T12:09:32;3.03;;;1.60;;
5811;SDS011;2932;52.400;9.558;2022-11-06T12:12:05;4.25;;;1.60;;
5811;SDS011;2932;52.400;9.558;2022-11-06T12:14:31;2.80;;;1.80;;
5811;SDS011;2932;52.400;9.558;2022-11-06T12:17:13;2.03;;;1.50;;
5811;SDS011;2932;52.400;9.558;2022-11-06T12:19:45;4.05;;;1.60;;
5811;SDS011;2932;52.400;9.558;2022-11-06T12:22:34;4.47;;;1.70;;
5811;SDS011;2932;52.400;9.558;2022-11-06T12:25:08;4.38;;;1.60;;
5811;SDS011;2932;52.400;9.558;2022-11-06T12:27:40;2.30;;;1.58;;
5811;SDS011;2932;52.400;9.558;2022-11-06T12:30:11;2.22;;;1.50;;
5811;SDS011;2932;52.400;9.558;2022-11-06T12:33:00;4.20;;;1.75;;
5811;SDS011;2932;52.400;9.558;2022-11-06T12:35:38;2.33;;;1.40;;
5811;SDS011;2932;52.400;9.558;2022-11-06T12:43:41;7.38;;;1.90;;
5811;SDS011;2932;52.400;9.558;2022-11-06T13:00:29;3.10;;;1.33;;
5811;SDS011;2932;52.400;9.558;2022-11-06T13:14:07;4.10;;;1.50;;
5811;SDS011;2932;52.400;9.558;2022-11-06T13:22:24;3.25;;;1.80;;
5811;SDS011;2932;52.400;9.558;2022-11-06T13:32:43;4.53;;;1.90;;
5811;SDS011;2932;52.400;9.558;2022-11-06T13:35:26;3.35;;;1.70;;
5811;SDS011;2932;52.400;9.558;2022-11-06T13:37:52;4.32;;;1.80;;
5811;SDS011;2932;52.400;9.558;2022-11-06T13:40:31;4.53;;;1.50;;
5811;SDS011;2932;52.400;9.558;2022-11-06T13:43:16;3.83;;;1.60;;
5811;SDS011;2932;52.400;9.558;2022-11-06T13:51:24;3.33;;;1.33;;
5811;SDS011;2932;52.400;9.558;2022-11-06T13:54:22;3.30;;;1.50;;
5811;SDS011;2932;52.400;9.558;2022-11-06T13:57:06;7.30;;;1.83;;
5811;SDS011;2932;52.400;9.558;2022-11-06T13:59:46;3.53;;;1.77;;
5811;SDS011;2932;52.400;9.558;2022-11-06T14:08:10;2.60;;;1.20;;
5811;SDS011;2932;52.400;9.558;2022-11-06T14:10:46;4.80;;;1.65;;
5811;SDS011;2932;52.400;9.558;2022-11-06T14:13:24;4.95;;;1.90;;
5811;SDS011;2932;52.400;9.558;2022-11-06T14:18:59;6.05;;;1.60;;
5811;SDS011;2932;52.400;9.558;2022-11-06T14:26:51;3.13;;;1.40;;
5811;SDS011;2932;52.400;9.558;2022-11-06T14:34:25;2.42;;;1.10;;
5811;SDS011;2932;52.400;9.558;2022-11-06T14:36:55;3.47;;;1.30;;
5811;SDS011;2932;52.400;9.558;2022-11-06T14:44:51;1.70;;;1.60;;
5811;SDS011;2932;52.400;9.558;2022-11-06T14:47:24;3.43;;;1.37;;
5811;SDS011;2932;52.400;9.558;2022-11-06T14:49:53;4.03;;;1.30;;
5811;SDS011;2932;52.400;9.558;2022-11-06T14:52:22;3.37;;;1.27;;
5811;SDS011;2932;52.400;9.558;2022-11-06T14:55:02;4.10;;;1.50;;
5811;SDS011;2932;52.400;9.558;2022-11-06T15:00:32;3.40;;;1.10;;
5811;SDS011;2932;52.400;9.558;2022-11-06T15:02:59;4.63;;;1.37;;
5811;SDS011;2932;52.400;9.558;2022-11-06T15:05:25;2.67;;;1.20;;
5811;SDS011;2932;52.400;9.558;2022-11-06T15:07:53;2.63;;;1.43;;
5811;SDS011;2932;52.400;9.558;2022-11-06T15:15:39;6.77;;;1.53;;
5811;SDS011;2932;52.400;9.558;2022-11-06T15:18:10;2.87;;;1.23;;
5811;SDS011;2932;52.400;9.558;2022-11-06T15:20:38;3.13;;;1.10;;
5811;SDS011;2932;52.400;9.558;2022-11-06T15:23:15;3.00;;;1.20;;
5811;SDS011;2932;52.400;9.558;2022-11-06T15:26:03;3.83;;;1.50;;
5811;SDS011;2932;52.400;9.558;2022-11-06T15:29:01;2.80;;;1.10;;
5811;SDS011;2932;52.400;9.558;2022-11-06T15:31:57;4.13;;;1.30;;
5811;SDS011;2932;52.400;9.558;2022-11-06T15:34:31;2.67;;;1.10;;
5811;SDS011;2932;52.400;9.558;2022-11-06T15:37:10;1.67;;;1.00;;
5811;SDS011;2932;52.400;9.558;2022-11-06T15:39:50;2.53;;;1.03;;
5811;SDS011;2932;52.400;9.558;2022-11-06T15:42:26;2.07;;;1.30;;
5811;SDS011;2932;52.400;9.558;2022-11-06T15:45:39;2.03;;;1.27;;
5811;SDS011;2932;52.400;9.558;2022-11-06T15:47:58;2.83;;;1.33;;
5811;SDS011;2932;52.400;9.558;2022-11-06T15:50:41;2.30;;;1.40;;
5811;SDS011;2932;52.400;9.558;2022-11-06T15:55:35;2.43;;;1.30;;
5811;SDS011;2932;52.400;9.558;2022-11-06T15:58:04;3.23;;;1.03;;
5811;SDS011;2932;52.400;9.558;2022-11-06T16:00:50;2.77;;;1.30;;
5811;SDS011;2932;52.400;9.558;2022-11-06T16:03:17;3.70;;;1.33;;
5811;SDS011;2932;52.400;9.558;2022-11-06T16:05:44;1.97;;;1.47;;
5811;SDS011;2932;52.400;9.558;2022-11-06T16:08:11;2.40;;;1.20;;
5811;SDS011;2932;52.400;9.558;2022-11-06T16:10:38;3.70;;;1.30;;
5811;SDS011;2932;52.400;9.558;2022-11-06T16:13:05;2.97;;;1.23;;
5811;SDS011;2932;52.400;9.558;2022-11-06T16:18:32;3.80;;;1.00;;
5811;SDS011;2932;52.400;9.558;2022-11-06T16:21:21;2.10;;;1.20;;
5811;SDS011;2932;52.400;9.558;2022-11-06T16:23:52;2.50;;;1.23;;
5811;SDS011;2932;52.400;9.558;2022-11-06T16:28:47;3.57;;;1.00;;
5811;SDS011;2932;52.400;9.558;2022-11-06T16:31:15;1.80;;;1.20;;
5811;SDS011;2932;52.400;9.558;2022-11-06T16:33:51;3.83;;;1.70;;
5811;SDS011;2932;52.400;9.558;2022-11-06T16:36:28;2.93;;;1.43;;
5811;SDS011;2932;52.400;9.558;2022-11-06T16:48:22;3.77;;;1.77;;
5811;SDS011;2932;52.400;9.558;2022-11-06T16:50:41;3.20;;;1.53;;
5811;SDS011;2932;52.400;9.558;2022-11-06T16:53:07;3.77;;;1.60;;
5811;SDS011;2932;52.400;9.558;2022-11-06T16:55:33;4.30;;;1.63;;
5811;SDS011;2932;52.400;9.558;2022-11-06T16:57:59;4.37;;;1.60;;
5811;SDS011;2932;52.400;9.558;2022-11-06T17:00:27;4.07;;;1.20;;
5811;SDS011;2932;52.400;9.558;2022-11-06T17:03:04;1.63;;;0.93;;
5811;SDS011;2932;52.400;9.558;2022-11-06T17:05:33;3.07;;;1.17;;
5811;SDS011;2932;52.400;9.558;2022-11-06T17:08:05;5.33;;;2.17;;
5811;SDS011;2932;52.400;9.558;2022-11-06T17:10:40;5.43;;;1.37;;
5811;SDS011;2932;52.400;9.558;2022-11-06T17:13:11;4.10;;;1.80;;
5811;SDS011;2932;52.400;9.558;2022-11-06T17:18:21;2.60;;;1.20;;
5811;SDS011;2932;52.400;9.558;2022-11-06T17:20:55;2.67;;;1.60;;
5811;SDS011;2932;52.400;9.558;2022-11-06T17:23:23;3.13;;;1.40;;
5811;SDS011;2932;52.400;9.558;2022-11-06T17:25:50;3.03;;;1.53;;
5811;SDS011;2932;52.400;9.558;2022-11-06T17:28:17;2.80;;;1.40;;
5811;SDS011;2932;52.400;9.558;2022-11-06T17:30:43;2.30;;;1.40;;
5811;SDS011;2932;52.400;9.558;2022-11-06T17:33:10;2.37;;;1.30;;
5811;SDS011;2932;52.400;9.558;2022-11-06T17:35:35;3.07;;;1.37;;
5811;SDS011;2932;52.400;9.558;2022-11-06T17:38:00;3.10;;;1.77;;
5811;SDS011;2932;52.400;9.558;2022-11-06T17:40:26;3.87;;;2.00;;
5811;SDS011;2932;52.400;9.558;2022-11-06T17:42:51;2.17;;;1.37;;
5811;SDS011;2932;52.400;9.558;2022-11-06T17:45:16;1.60;;;1.30;;
5811;SDS011;2932;52.400;9.558;2022-11-06T17:47:42;5.03;;;1.83;;
5811;SDS011;2932;52.400;9.558;2022-11-06T17:50:07;1.50;;;1.00;;
5811;SDS011;2932;52.400;9.558;2022-11-06T17:52:33;1.10;;;1.00;;
5811;SDS011;2932;52.400;9.558;2022-11-06T17:54:58;2.00;;;1.37;;
5811;SDS011;2932;52.400;9.558;2022-11-06T17:57:24;2.43;;;1.30;;
5811;SDS011;2932;52.400;9.558;2022-11-06T17:59:49;4.50;;;1.10;;
5811;SDS011;2932;52.400;9.558;2022-11-06T18:02:15;1.93;;;1.10;;
5811;SDS011;2932;52.400;9.558;2022-11-06T18:04:40;2.00;;;1.30;;
5811;SDS011;2932;52.400;9.558;2022-11-06T18:07:06;2.37;;;1.30;;
5811;SDS011;2932;52.400;9.558;2022-11-06T18:09:32;1.77;;;1.10;;
5811;SDS011;2932;52.400;9.558;2022-11-06T18:11:57;2.40;;;1.23;;
5811;SDS011;2932;52.400;9.558;2022-11-06T18:14:23;2.87;;;1.40;;
5811;SDS011;2932;52.400;9.558;2022-11-06T18:16:50;2.03;;;1.50;;
5811;SDS011;2932;52.400;9.558;2022-11-06T18:19:17;2.93;;;1.70;;
5811;SDS011;2932;52.400;9.558;2022-11-06T18:21:44;3.63;;;1.83;;
5811;SDS011;2932;52.400;9.558;2022-11-06T18:24:10;3.57;;;2.10;;
5811;SDS011;2932;52.400;9.558;2022-11-06T18:26:36;4.20;;;2.47;;
5811;SDS011;2932;52.400;9.558;2022-11-06T18:29:02;2.30;;;1.53;;
5811;SDS011;2932;52.400;9.558;2022-11-06T18:31:28;2.20;;;1.80;;
5811;SDS011;2932;52.400;9.558;2022-11-06T18:33:54;2.50;;;1.87;;
5811;SDS011;2932;52.400;9.558;2022-11-06T18:36:19;2.10;;;1.90;;
5811;SDS011;2932;52.400;9.558;2022-11-06T18:38:45;4.77;;;2.10;;
5811;SDS011;2932;52.400;9.558;2022-11-06T18:41:11;2.10;;;1.60;;